createdAt,value
2023-02-19T00:01:39.274Z,15.32
2023-02-19T00:04:08.492Z,15.10
2023-02-19T00:06:36.761Z,16.73
2023-02-19T00:09:04.966Z,15.57
2023-02-19T00:11:36.016Z,14.57
2023-02-19T00:14:04.596Z,15.32
2023-02-19T00:16:35.071Z,15.50
2023-02-19T00:19:04.413Z,15.68
2023-02-19T00:21:32.513Z,17.00
2023-02-19T00:24:02.916Z,15.88
2023-02-19T00:26:30.890Z,15.20
2023-02-19T00:29:01.467Z,14.57
2023-02-19T00:31:32.960Z,15.88
2023-02-19T00:34:03.341Z,14.27
2023-02-19T00:36:32.333Z,14.02
2023-02-19T00:39:00.245Z,14.02
2023-02-19T00:41:29.004Z,12.90
2023-02-19T00:43:58.390Z,12.13
2023-02-19T00:46:29.547Z,11.85
2023-02-19T00:48:58.766Z,10.68
2023-02-19T00:51:28.351Z,10.32
2023-02-19T00:53:56.410Z,10.38
2023-02-19T00:56:24.396Z,10.60
2023-02-19T00:58:52.598Z,10.05
2023-02-19T01:01:20.503Z,9.32
2023-02-19T01:03:50.201Z,8.98
2023-02-19T01:06:20.289Z,8.70
2023-02-19T01:08:48.704Z,8.30
2023-02-19T01:11:16.717Z,8.32
2023-02-19T01:13:44.722Z,8.43
2023-02-19T01:16:14.974Z,9.15
2023-02-19T01:18:43.236Z,7.65
2023-02-19T01:21:15.358Z,7.20
2023-02-19T01:23:44.064Z,6.90
2023-02-19T01:26:14.881Z,6.22
2023-02-19T01:28:42.743Z,6.65
2023-02-19T01:31:14.854Z,7.45
2023-02-19T01:33:46.901Z,7.35
2023-02-19T01:36:16.848Z,6.93
2023-02-19T01:38:45.374Z,7.03
2023-02-19T01:41:15.672Z,6.32
2023-02-19T01:44:01.944Z,5.90
2023-02-19T01:46:30.927Z,6.10
2023-02-19T01:49:04.053Z,6.13
2023-02-19T01:51:37.272Z,6.47
2023-02-19T01:54:08.132Z,6.20
2023-02-19T01:56:39.213Z,6.13
2023-02-19T01:59:08.627Z,5.97
2023-02-19T02:01:38.296Z,6.95
2023-02-19T02:04:07.851Z,5.93
2023-02-19T02:06:43.521Z,5.78
2023-02-19T02:09:29.011Z,6.55
2023-02-19T02:11:56.812Z,4.97
2023-02-19T02:14:28.640Z,5.15
2023-02-19T02:17:07.845Z,5.10
2023-02-19T02:19:57.388Z,5.22
2023-02-19T02:22:32.435Z,4.50
2023-02-19T02:25:33.927Z,4.45
2023-02-19T02:28:14.234Z,4.53
2023-02-19T02:30:47.252Z,4.90
2023-02-19T02:33:22.363Z,5.53
2023-02-19T02:35:54.048Z,5.05
2023-02-19T02:38:24.970Z,5.05
2023-02-19T02:40:53.421Z,5.97
2023-02-19T02:43:21.168Z,6.30
2023-02-19T02:45:50.611Z,5.35
2023-02-19T02:48:25.675Z,5.07
2023-02-19T02:50:56.196Z,5.45
2023-02-19T02:53:47.526Z,5.30
2023-02-19T02:56:17.365Z,4.82
2023-02-19T02:58:46.226Z,4.43
2023-02-19T03:01:37.883Z,4.57
2023-02-19T03:04:09.969Z,5.32
2023-02-19T03:06:39.072Z,5.40
2023-02-19T03:09:12.514Z,5.35
2023-02-19T03:12:02.226Z,4.68
2023-02-19T03:14:53.920Z,5.95
2023-02-19T03:17:46.226Z,4.63
2023-02-19T03:20:17.071Z,4.57
2023-02-19T03:22:47.217Z,5.07
2023-02-19T03:25:38.092Z,4.60
2023-02-19T03:28:09.728Z,4.28
2023-02-19T03:30:41.339Z,4.50
2023-02-19T03:33:14.867Z,4.72
2023-02-19T03:35:47.574Z,4.80
2023-02-19T03:38:20.703Z,4.65
2023-02-19T03:40:57.464Z,4.45
2023-02-19T03:46:03.530Z,5.15
2023-02-19T03:48:35.870Z,4.20
2023-02-19T03:51:13.074Z,4.03
2023-02-19T03:53:51.829Z,3.80
2023-02-19T03:56:27.835Z,4.13
2023-02-19T03:59:01.440Z,4.07
2023-02-19T04:01:36.994Z,3.53
2023-02-19T04:04:13.768Z,3.45
2023-02-19T04:09:15.398Z,3.78
2023-02-19T04:11:43.718Z,3.63
2023-02-19T04:14:16.997Z,3.40
2023-02-19T04:16:50.593Z,4.13
2023-02-19T04:19:22.209Z,4.28
2023-02-19T04:21:51.987Z,4.47
2023-02-19T04:24:24.066Z,3.53
2023-02-19T04:26:51.955Z,3.35
2023-02-19T04:29:19.749Z,3.28
2023-02-19T04:31:47.507Z,4.05
2023-02-19T04:34:15.208Z,3.58
2023-02-19T04:36:44.294Z,4.45
2023-02-19T04:39:11.974Z,3.10
2023-02-19T04:41:39.713Z,3.30
2023-02-19T04:44:07.482Z,3.72
2023-02-19T04:46:35.144Z,4.05
2023-02-19T04:49:02.924Z,3.67
2023-02-19T04:51:30.628Z,4.03
2023-02-19T04:53:59.722Z,4.07
2023-02-19T04:56:27.425Z,3.13
2023-02-19T04:58:55.096Z,3.70
2023-02-19T05:01:22.870Z,3.78
2023-02-19T05:03:50.617Z,4.70
2023-02-19T05:06:18.600Z,3.42
2023-02-19T05:08:46.339Z,3.97
2023-02-19T05:11:15.442Z,3.15
2023-02-19T05:13:43.165Z,3.55
2023-02-19T05:16:13.824Z,3.55
2023-02-19T05:18:42.424Z,2.95
2023-02-19T05:21:12.559Z,4.07
2023-02-19T05:23:40.557Z,2.88
2023-02-19T05:26:09.294Z,3.65
2023-02-19T05:28:38.431Z,3.92
2023-02-19T05:31:08.213Z,2.60
2023-02-19T05:33:37.007Z,3.45
2023-02-19T05:36:08.126Z,3.10
2023-02-19T05:38:36.292Z,3.80
2023-02-19T05:41:13.066Z,5.88
2023-02-19T05:43:43.385Z,3.65
2023-02-19T05:46:15.135Z,3.30
2023-02-19T05:48:43.660Z,2.90
2023-02-19T05:51:13.865Z,3.30
2023-02-19T05:53:42.630Z,2.95
2023-02-19T05:56:26.055Z,3.08
2023-02-19T05:58:56.100Z,3.40
2023-02-19T06:01:27.089Z,4.85
2023-02-19T06:03:57.350Z,3.42
2023-02-19T06:06:26.227Z,3.60
2023-02-19T06:08:54.635Z,3.45
2023-02-19T06:11:22.752Z,3.65
2023-02-19T06:13:51.150Z,2.35
2023-02-19T06:16:21.909Z,4.20
2023-02-19T06:18:50.437Z,3.30
2023-02-19T06:21:19.910Z,3.42
2023-02-19T06:23:47.968Z,3.03
2023-02-19T06:26:18.676Z,3.88
2023-02-19T06:28:47.802Z,4.70
2023-02-19T06:31:16.278Z,3.85
2023-02-19T06:33:45.860Z,2.72
2023-02-19T06:36:17.021Z,4.70
2023-02-19T06:38:44.885Z,2.85
2023-02-19T06:41:13.869Z,3.83
2023-02-19T06:43:42.204Z,3.03
2023-02-19T06:46:13.709Z,3.42
2023-02-19T06:48:42.598Z,3.15
2023-02-19T06:51:13.763Z,3.67
2023-02-19T06:53:41.502Z,3.40
2023-02-19T06:56:23.526Z,4.13
2023-02-19T06:58:51.665Z,4.22
2023-02-19T07:01:19.426Z,2.63
2023-02-19T07:03:47.185Z,2.47
2023-02-19T07:06:16.549Z,3.50
2023-02-19T07:08:44.254Z,3.78
2023-02-19T07:11:12.164Z,4.10
2023-02-19T07:13:40.070Z,4.07
2023-02-19T07:16:11.102Z,2.63
2023-02-19T07:18:40.276Z,4.50
2023-02-19T07:21:11.288Z,2.70
2023-02-19T07:23:41.057Z,3.33
2023-02-19T07:26:10.569Z,3.30
2023-02-19T07:28:38.313Z,3.92
2023-02-19T07:31:06.490Z,3.38
2023-02-19T07:33:34.345Z,3.92
2023-02-19T07:36:02.095Z,2.90
2023-02-19T07:38:30.015Z,3.67
2023-02-19T07:41:00.932Z,3.25
2023-02-19T07:43:30.855Z,3.60
2023-02-19T07:45:58.680Z,2.85
2023-02-19T07:48:26.457Z,4.47
2023-02-19T07:50:54.824Z,4.15
2023-02-19T07:53:23.795Z,3.30
2023-02-19T07:55:51.783Z,3.63
2023-02-19T07:58:21.139Z,3.10
2023-02-19T08:00:48.847Z,2.80
2023-02-19T08:03:15.632Z,2.90
2023-02-19T08:05:44.984Z,2.97
2023-02-19T08:08:15.361Z,2.90
2023-02-19T08:11:00.832Z,2.80
2023-02-19T08:13:31.838Z,3.08
2023-02-19T08:16:20.083Z,4.28
2023-02-19T08:18:52.136Z,3.70
2023-02-19T08:21:20.578Z,3.20
2023-02-19T08:23:51.193Z,2.90
2023-02-19T08:26:19.941Z,3.25
2023-02-19T08:28:49.763Z,3.08
2023-02-19T08:31:17.941Z,2.72
2023-02-19T08:33:46.098Z,3.05
2023-02-19T08:36:13.831Z,2.70
2023-02-19T08:38:41.543Z,3.45
2023-02-19T08:41:12.304Z,2.70
2023-02-19T08:43:40.333Z,3.20
2023-02-19T08:46:11.012Z,3.22
2023-02-19T08:48:40.147Z,3.17
2023-02-19T08:51:10.958Z,3.70
2023-02-19T08:53:41.092Z,4.15
2023-02-19T08:56:10.577Z,3.75
2023-02-19T08:58:39.007Z,3.70
2023-02-19T09:01:11.853Z,4.05
2023-02-19T09:03:39.856Z,3.47
2023-02-19T09:06:08.228Z,3.33
2023-02-19T09:08:36.081Z,3.83
2023-02-19T09:11:06.964Z,3.03
2023-02-19T09:13:34.814Z,3.83
2023-02-19T09:16:03.934Z,3.53
2023-02-19T09:18:33.704Z,2.72
2023-02-19T09:21:02.515Z,2.60
2023-02-19T09:23:30.444Z,3.10
2023-02-19T09:26:00.010Z,2.95
2023-02-19T09:28:28.139Z,3.10
2023-02-19T09:30:56.082Z,2.92
2023-02-19T09:33:23.906Z,2.50
2023-02-19T09:35:53.145Z,3.63
2023-02-19T09:38:20.846Z,2.25
2023-02-19T09:40:49.711Z,2.72
2023-02-19T09:43:20.845Z,2.78
2023-02-19T09:45:49.561Z,3.67
2023-02-19T09:48:17.307Z,3.15
2023-02-19T09:50:48.063Z,3.13
2023-02-19T09:53:22.112Z,3.42
2023-02-19T09:55:50.315Z,3.25
2023-02-19T09:58:27.323Z,3.65
2023-02-19T10:00:56.768Z,3.28
2023-02-19T10:03:30.814Z,3.78
2023-02-19T10:06:01.765Z,3.33
2023-02-19T10:08:34.312Z,3.00
2023-02-19T10:11:03.760Z,3.20
2023-02-19T10:13:34.210Z,3.95
2023-02-19T10:16:04.053Z,3.22
2023-02-19T10:18:39.645Z,4.88
2023-02-19T10:21:08.178Z,4.30
2023-02-19T10:23:37.371Z,5.90
2023-02-19T10:26:05.240Z,5.18
2023-02-19T10:28:35.460Z,6.20
2023-02-19T10:31:06.183Z,5.82
2023-02-19T10:33:34.086Z,5.35
2023-02-19T10:36:04.964Z,5.32
2023-02-19T10:38:35.073Z,4.88
2023-02-19T10:41:07.486Z,5.65
2023-02-19T10:43:39.907Z,5.53
2023-02-19T10:46:09.486Z,5.18
2023-02-19T10:48:40.626Z,5.40
2023-02-19T10:51:10.859Z,5.60
2023-02-19T10:53:46.863Z,6.07
2023-02-19T10:56:23.401Z,4.87
2023-02-19T10:58:51.616Z,4.95
2023-02-19T11:01:21.874Z,4.65
2023-02-19T11:03:52.562Z,5.75
2023-02-19T11:06:22.684Z,5.05
2023-02-19T11:08:56.904Z,4.78
2023-02-19T11:11:31.218Z,4.72
2023-02-19T11:14:00.965Z,5.13
2023-02-19T11:16:40.426Z,4.60
2023-02-19T11:19:24.198Z,4.15
2023-02-19T11:21:52.318Z,3.17
2023-02-19T11:24:29.881Z,4.18
2023-02-19T11:26:59.691Z,3.35
2023-02-19T11:29:29.364Z,3.55
2023-02-19T11:31:57.507Z,3.55
2023-02-19T11:34:30.868Z,3.67
2023-02-19T11:37:13.430Z,3.10
2023-02-19T11:39:43.432Z,3.17
2023-02-19T11:42:37.249Z,2.97
2023-02-19T11:45:28.546Z,2.70
2023-02-19T11:48:23.409Z,2.80
2023-02-19T11:51:00.440Z,2.58
2023-02-19T11:53:30.499Z,2.30
2023-02-19T11:56:13.750Z,2.33
2023-02-19T11:59:09.350Z,2.47
2023-02-19T12:01:56.056Z,2.50
2023-02-19T12:04:56.681Z,2.38
2023-02-19T12:07:38.079Z,3.10
2023-02-19T12:10:18.760Z,2.30
2023-02-19T12:13:02.260Z,2.67
2023-02-19T12:15:46.772Z,2.33
2023-02-19T12:18:43.002Z,2.03
2023-02-19T12:21:23.499Z,3.05
2023-02-19T12:24:13.130Z,2.00
2023-02-19T12:26:48.559Z,2.80
2023-02-19T12:29:34.288Z,2.22
2023-02-19T12:32:31.702Z,2.35
2023-02-19T12:35:24.579Z,1.85
2023-02-19T12:38:00.376Z,2.15
2023-02-19T12:40:49.149Z,2.37
2023-02-19T12:43:20.215Z,3.40
2023-02-19T12:45:53.877Z,2.88
2023-02-19T12:48:30.842Z,2.08
2023-02-19T12:51:03.700Z,2.35
2023-02-19T12:53:39.876Z,2.50
2023-02-19T12:56:14.768Z,1.95
2023-02-19T12:58:46.780Z,2.42
2023-02-19T13:01:20.336Z,2.42
2023-02-19T13:03:55.048Z,2.17
2023-02-19T13:06:34.339Z,2.50
2023-02-19T13:09:07.507Z,2.35
2023-02-19T13:11:41.517Z,1.88
2023-02-19T13:14:19.921Z,2.10
2023-02-19T13:16:51.933Z,1.40
2023-02-19T13:19:21.136Z,1.85
2023-02-19T13:22:14.140Z,2.10
2023-02-19T13:24:44.006Z,2.28
2023-02-19T13:27:37.938Z,1.83
2023-02-19T13:30:22.701Z,1.90
2023-02-19T13:33:00.118Z,2.35
2023-02-19T13:35:53.704Z,1.55
2023-02-19T13:38:21.905Z,1.55
2023-02-19T13:40:56.001Z,1.40
2023-02-19T13:43:26.777Z,1.63
2023-02-19T13:45:58.941Z,1.73
2023-02-19T13:48:29.658Z,1.50
2023-02-19T13:51:36.372Z,1.45
2023-02-19T13:54:15.388Z,1.40
2023-02-19T13:56:43.385Z,1.20
2023-02-19T13:59:24.540Z,1.25
2023-02-19T14:02:34.161Z,1.30
2023-02-19T14:05:07.910Z,1.20
2023-02-19T14:08:03.082Z,1.40
2023-02-19T14:11:02.489Z,0.80
2023-02-19T14:14:01.816Z,1.00
2023-02-19T14:16:49.595Z,0.70
2023-02-19T14:19:59.110Z,1.00
2023-02-19T14:23:02.580Z,0.77
2023-02-19T14:25:42.806Z,0.77
2023-02-19T14:28:30.493Z,1.10
2023-02-19T14:31:01.707Z,0.70
2023-02-19T14:33:31.444Z,1.00
2023-02-19T14:36:05.756Z,0.98
2023-02-19T14:38:37.981Z,0.85
2023-02-19T14:41:07.290Z,0.80
2023-02-19T14:43:37.544Z,1.05
2023-02-19T14:46:10.220Z,0.80
2023-02-19T14:48:42.835Z,0.93
2023-02-19T14:51:16.230Z,0.95
2023-02-19T14:53:46.531Z,1.40
2023-02-19T14:56:22.353Z,1.20
2023-02-19T14:59:10.654Z,1.10
2023-02-19T15:01:38.630Z,0.82
2023-02-19T15:04:06.967Z,1.30
2023-02-19T15:06:36.680Z,1.10
2023-02-19T15:09:07.091Z,1.20
2023-02-19T15:11:36.209Z,0.70
2023-02-19T15:14:06.814Z,1.00
2023-02-19T15:16:37.548Z,1.38
2023-02-19T15:19:10.291Z,0.90
2023-02-19T15:21:40.999Z,1.05
2023-02-19T15:24:09.088Z,1.05
2023-02-19T15:26:40.530Z,0.80
2023-02-19T15:29:12.277Z,1.00
2023-02-19T15:31:47.378Z,0.88
2023-02-19T15:34:22.147Z,0.93
2023-02-19T15:36:52.888Z,1.20
2023-02-19T15:39:23.924Z,0.88
2023-02-19T15:41:59.975Z,1.00
2023-02-19T15:44:44.272Z,1.05
2023-02-19T15:47:21.370Z,1.02
2023-02-19T15:49:55.418Z,0.88
2023-02-19T15:52:29.789Z,0.60
2023-02-19T15:55:02.946Z,0.80
2023-02-19T15:57:36.374Z,0.75
2023-02-19T16:00:13.580Z,0.80
2023-02-19T16:02:42.950Z,0.65
2023-02-19T16:05:17.869Z,0.47
2023-02-19T16:07:45.619Z,0.63
2023-02-19T16:10:22.813Z,0.60
2023-02-19T16:12:58.651Z,1.02
2023-02-19T16:15:27.185Z,0.60
2023-02-19T16:17:57.413Z,0.70
2023-02-19T16:20:27.425Z,0.57
2023-02-19T16:23:00.665Z,0.70
2023-02-19T16:25:34.563Z,0.50
2023-02-19T16:28:12.476Z,0.80
2023-02-19T16:30:40.849Z,1.05
2023-02-19T16:33:32.967Z,0.63
2023-02-19T16:36:18.406Z,0.60
2023-02-19T16:39:12.954Z,0.63
2023-02-19T16:42:15.500Z,0.80
2023-02-19T16:44:44.241Z,0.60
2023-02-19T16:47:33.029Z,0.90
2023-02-19T16:50:05.806Z,1.15
2023-02-19T16:52:33.561Z,0.93
2023-02-19T16:55:01.856Z,1.13
2023-02-19T16:57:29.585Z,0.70
2023-02-19T16:59:57.324Z,1.05
2023-02-19T17:02:26.147Z,1.00
2023-02-19T17:04:55.723Z,0.88
2023-02-19T17:07:26.019Z,0.80
2023-02-19T17:09:53.775Z,1.00
2023-02-19T17:12:22.195Z,0.90
2023-02-19T17:14:49.863Z,0.80
2023-02-19T17:17:17.658Z,0.70
2023-02-19T17:19:45.407Z,0.93
2023-02-19T17:22:16.998Z,1.13
2023-02-19T17:24:46.464Z,0.85
2023-02-19T17:27:14.597Z,0.70
2023-02-19T17:29:42.620Z,0.68
2023-02-19T17:32:10.415Z,0.73
2023-02-19T17:34:38.171Z,0.90
2023-02-19T17:37:05.857Z,0.70
2023-02-19T17:39:33.575Z,1.02
2023-02-19T17:42:02.665Z,0.68
2023-02-19T17:44:30.385Z,0.73
2023-02-19T17:46:58.294Z,0.90
2023-02-19T17:49:26.075Z,1.30
2023-02-19T17:51:53.926Z,0.90
2023-02-19T17:54:21.700Z,0.98
2023-02-19T17:56:49.437Z,0.68
2023-02-19T17:59:18.541Z,0.82
2023-02-19T18:01:47.071Z,1.00
2023-02-19T18:04:14.865Z,0.60
2023-02-19T18:06:42.891Z,0.80
2023-02-19T18:09:11.348Z,0.98
2023-02-19T18:11:39.559Z,0.82
2023-02-19T18:14:07.236Z,0.80
2023-02-19T18:16:36.327Z,0.70
2023-02-19T18:19:04.530Z,0.90
2023-02-19T18:21:32.295Z,0.80
2023-02-19T18:24:00.003Z,0.73
2023-02-19T18:26:27.802Z,0.80
2023-02-19T18:28:55.477Z,0.80
2023-02-19T18:31:23.284Z,0.70
2023-02-19T18:33:52.460Z,0.68
2023-02-19T18:36:20.180Z,0.60
2023-02-19T18:38:47.902Z,0.73
2023-02-19T18:41:19.766Z,0.73
2023-02-19T18:43:48.231Z,0.70
2023-02-19T18:46:16.170Z,0.70
2023-02-19T18:48:43.929Z,0.70
2023-02-19T18:51:14.429Z,1.02
2023-02-19T18:53:43.511Z,0.52
2023-02-19T18:56:11.213Z,0.70
2023-02-19T18:58:38.917Z,0.93
2023-02-19T19:01:06.772Z,1.30
2023-02-19T19:03:34.584Z,0.60
2023-02-19T19:06:02.311Z,0.85
2023-02-19T19:08:31.472Z,0.80
2023-02-19T19:10:59.211Z,0.98
2023-02-19T19:13:26.939Z,0.98
2023-02-19T19:15:54.741Z,0.90
2023-02-19T19:18:22.515Z,0.80
2023-02-19T19:20:50.209Z,1.00
2023-02-19T19:23:17.960Z,0.95
2023-02-19T19:25:47.043Z,0.93
2023-02-19T19:28:14.797Z,1.40
2023-02-19T19:30:42.609Z,1.33
2023-02-19T19:33:12.117Z,1.10
2023-02-19T19:35:41.704Z,1.20
2023-02-19T19:38:09.400Z,0.90
2023-02-19T19:40:37.353Z,1.25
2023-02-19T19:43:06.444Z,1.42
2023-02-19T19:45:34.186Z,1.00
2023-02-19T19:48:02.305Z,1.05
2023-02-19T19:50:30.081Z,1.60
2023-02-19T19:52:57.902Z,1.10
2023-02-19T19:55:25.624Z,1.30
2023-02-19T19:57:54.477Z,1.00
2023-02-19T20:00:24.473Z,1.40
2023-02-19T20:02:52.243Z,1.20
2023-02-19T20:05:20.020Z,1.33
2023-02-19T20:07:47.796Z,1.08
2023-02-19T20:10:16.144Z,1.08
2023-02-19T20:12:44.184Z,1.10
2023-02-19T20:15:12.058Z,1.50
2023-02-19T20:17:41.159Z,1.95
2023-02-19T20:20:10.268Z,1.40
2023-02-19T20:22:39.254Z,1.50
2023-02-19T20:25:07.406Z,1.30
2023-02-19T20:27:35.205Z,1.40
2023-02-19T20:30:03.039Z,1.80
2023-02-19T20:32:30.793Z,1.80
2023-02-19T20:34:59.889Z,1.77
2023-02-19T20:37:27.657Z,1.88
2023-02-19T20:39:55.326Z,1.65
2023-02-19T20:42:23.088Z,1.90
2023-02-19T20:44:50.813Z,2.17
2023-02-19T20:47:18.560Z,2.08
2023-02-19T20:49:47.077Z,1.90
2023-02-19T20:52:17.795Z,2.25
2023-02-19T20:54:45.581Z,2.33
2023-02-19T20:57:15.230Z,2.25
2023-02-19T20:59:44.245Z,2.10
2023-02-19T21:02:17.840Z,2.08
2023-02-19T21:04:45.583Z,2.03
2023-02-19T21:07:13.440Z,2.22
2023-02-19T21:09:42.594Z,2.40
2023-02-19T21:12:10.368Z,2.08
2023-02-19T21:14:38.063Z,2.30
2023-02-19T21:17:06.470Z,2.03
2023-02-19T21:19:34.261Z,2.60
2023-02-19T21:22:02.028Z,2.60
2023-02-19T21:24:29.969Z,2.45
2023-02-19T21:26:59.280Z,2.65
2023-02-19T21:29:27.123Z,2.53
2023-02-19T21:31:57.177Z,2.47
2023-02-19T21:34:27.035Z,2.85
2023-02-19T21:36:55.472Z,2.88
2023-02-19T21:39:25.064Z,3.25
2023-02-19T21:41:53.244Z,3.17
2023-02-19T21:44:22.616Z,3.30
2023-02-19T21:46:50.326Z,2.90
2023-02-19T21:49:18.624Z,3.45
2023-02-19T21:51:48.010Z,3.40
2023-02-19T21:54:18.404Z,3.55
2023-02-19T21:56:46.169Z,3.58
2023-02-19T21:59:14.237Z,3.58
2023-02-19T22:01:43.487Z,3.65
2023-02-19T22:04:13.812Z,4.43
2023-02-19T22:06:41.963Z,4.93
2023-02-19T22:09:10.540Z,4.15
2023-02-19T22:11:38.288Z,4.53
2023-02-19T22:14:07.269Z,4.32
2023-02-19T22:16:35.209Z,4.40
2023-02-19T22:19:04.733Z,4.53
2023-02-19T22:21:33.274Z,4.82
2023-02-19T22:24:02.198Z,4.85
2023-02-19T22:26:32.515Z,5.07
2023-02-19T22:29:01.428Z,5.47
2023-02-19T22:31:29.565Z,4.03
2023-02-19T22:33:57.523Z,5.03
2023-02-19T22:36:31.013Z,5.80
2023-02-19T22:38:58.758Z,5.00
2023-02-19T22:41:27.348Z,5.68
2023-02-19T22:43:55.564Z,5.43
2023-02-19T22:46:26.127Z,5.32
2023-02-19T22:48:53.821Z,5.47
2023-02-19T22:51:23.955Z,6.22
2023-02-19T22:53:54.998Z,5.57
2023-02-19T22:56:24.516Z,5.78
2023-02-19T22:58:52.589Z,4.88
2023-02-19T23:01:20.813Z,4.80
2023-02-19T23:03:50.691Z,5.53
2023-02-19T23:06:21.899Z,5.38
2023-02-19T23:08:49.748Z,5.20
2023-02-19T23:11:23.796Z,5.10
2023-02-19T23:13:51.930Z,5.72
2023-02-19T23:16:20.075Z,4.93
2023-02-19T23:18:48.115Z,5.95
2023-02-19T23:21:16.756Z,5.35
2023-02-19T23:23:45.515Z,5.70
2023-02-19T23:26:14.882Z,5.20
2023-02-19T23:28:44.655Z,6.00
2023-02-19T23:31:13.622Z,5.32
2023-02-19T23:33:41.884Z,5.10
2023-02-19T23:36:10.984Z,5.15
2023-02-19T23:38:39.021Z,5.75
2023-02-19T23:41:10.836Z,5.72
2023-02-19T23:43:38.899Z,5.28
2023-02-19T23:46:08.669Z,4.55
2023-02-19T23:48:36.708Z,5.13
2023-02-19T23:51:04.620Z,5.82
2023-02-19T23:53:32.379Z,5.20
2023-02-19T23:56:00.080Z,4.97
2023-02-19T23:58:28.109Z,5.28
